sensor_id;sensor_type;location;lat;lon;timestamp;P1;durP1;ratioP1;P2;durP2;ratioP2
13704;SDS011;6924;52.122;9.952;2023-04-25T00:01:27;7.77;;;3.97;;
13704;SDS011;6924;52.122;9.952;2023-04-25T00:03:53;7.07;;;3.60;;
13704;SDS011;6924;52.122;9.952;2023-04-25T00:06:19;4.60;;;2.97;;
13704;SDS011;6924;52.122;9.952;2023-04-25T00:08:46;7.77;;;4.23;;
13704;SDS011;6924;52.122;9.952;2023-04-25T00:11:12;7.10;;;3.53;;
13704;SDS011;6924;52.122;9.952;2023-04-25T00:13:39;6.70;;;3.77;;
13704;SDS011;6924;52.122;9.952;2023-04-25T00:16:07;5.80;;;3.30;;
13704;SDS011;6924;52.122;9.952;2023-04-25T00:18:34;12.30;;;3.97;;
13704;SDS011;6924;52.122;9.952;2023-04-25T00:21:01;8.50;;;4.37;;
13704;SDS011;6924;52.122;9.952;2023-04-25T00:23:27;10.90;;;4.70;;
13704;SDS011;6924;52.122;9.952;2023-04-25T00:25:54;7.87;;;4.43;;
13704;SDS011;6924;52.122;9.952;2023-04-25T00:28:21;7.93;;;4.40;;
13704;SDS011;6924;52.122;9.952;2023-04-25T00:30:47;9.67;;;4.40;;
13704;SDS011;6924;52.122;9.952;2023-04-25T00:33:15;8.47;;;4.60;;
13704;SDS011;6924;52.122;9.952;2023-04-25T00:35:41;8.27;;;4.27;;
13704;SDS011;6924;52.122;9.952;2023-04-25T00:38:08;10.00;;;5.17;;
13704;SDS011;6924;52.122;9.952;2023-04-25T00:40:34;8.90;;;3.90;;
13704;SDS011;6924;52.122;9.952;2023-04-25T00:43:01;8.07;;;4.80;;
13704;SDS011;6924;52.122;9.952;2023-04-25T00:45:27;8.13;;;3.40;;
13704;SDS011;6924;52.122;9.952;2023-04-25T00:47:55;7.40;;;4.53;;
13704;SDS011;6924;52.122;9.952;2023-04-25T00:50:24;9.93;;;4.43;;
13704;SDS011;6924;52.122;9.952;2023-04-25T00:52:50;10.33;;;4.30;;
13704;SDS011;6924;52.122;9.952;2023-04-25T00:55:17;10.73;;;5.27;;
13704;SDS011;6924;52.122;9.952;2023-04-25T00:57:44;7.67;;;4.00;;
13704;SDS011;6924;52.122;9.952;2023-04-25T01:00:10;8.83;;;4.50;;
13704;SDS011;6924;52.122;9.952;2023-04-25T01:02:38;6.20;;;4.80;;
13704;SDS011;6924;52.122;9.952;2023-04-25T01:05:06;6.93;;;4.00;;
13704;SDS011;6924;52.122;9.952;2023-04-25T01:07:34;8.73;;;4.10;;
13704;SDS011;6924;52.122;9.952;2023-04-25T01:10:01;11.47;;;4.40;;
13704;SDS011;6924;52.122;9.952;2023-04-25T01:12:28;4.77;;;4.23;;
13704;SDS011;6924;52.122;9.952;2023-04-25T01:14:55;6.60;;;4.57;;
13704;SDS011;6924;52.122;9.952;2023-04-25T01:17:22;9.87;;;4.37;;
13704;SDS011;6924;52.122;9.952;2023-04-25T01:19:48;10.23;;;4.17;;
13704;SDS011;6924;52.122;9.952;2023-04-25T01:22:17;5.47;;;3.77;;
13704;SDS011;6924;52.122;9.952;2023-04-25T01:24:44;10.77;;;5.30;;
13704;SDS011;6924;52.122;9.952;2023-04-25T01:27:11;8.63;;;4.83;;
13704;SDS011;6924;52.122;9.952;2023-04-25T01:29:37;4.77;;;4.27;;
13704;SDS011;6924;52.122;9.952;2023-04-25T01:32:04;6.47;;;5.37;;
13704;SDS011;6924;52.122;9.952;2023-04-25T01:34:32;6.47;;;4.27;;
13704;SDS011;6924;52.122;9.952;2023-04-25T01:36:59;9.77;;;5.10;;
13704;SDS011;6924;52.122;9.952;2023-04-25T01:39:28;8.20;;;5.17;;
13704;SDS011;6924;52.122;9.952;2023-04-25T01:41:54;8.87;;;5.47;;
13704;SDS011;6924;52.122;9.952;2023-04-25T01:44:21;8.10;;;4.93;;
13704;SDS011;6924;52.122;9.952;2023-04-25T01:46:47;9.73;;;5.70;;
13704;SDS011;6924;52.122;9.952;2023-04-25T01:49:14;9.90;;;5.30;;
13704;SDS011;6924;52.122;9.952;2023-04-25T01:51:40;9.40;;;5.43;;
13704;SDS011;6924;52.122;9.952;2023-04-25T01:54:08;16.80;;;5.80;;
13704;SDS011;6924;52.122;9.952;2023-04-25T01:56:37;9.77;;;5.10;;
13704;SDS011;6924;52.122;9.952;2023-04-25T01:59:05;9.80;;;5.53;;
13704;SDS011;6924;52.122;9.952;2023-04-25T02:01:31;7.33;;;5.47;;
13704;SDS011;6924;52.122;9.952;2023-04-25T02:03:58;8.30;;;5.00;;
13704;SDS011;6924;52.122;9.952;2023-04-25T02:06:24;8.27;;;5.00;;
13704;SDS011;6924;52.122;9.952;2023-04-25T02:08:51;10.13;;;5.10;;
13704;SDS011;6924;52.122;9.952;2023-04-25T02:11:17;13.67;;;5.70;;
13704;SDS011;6924;52.122;9.952;2023-04-25T02:13:45;7.47;;;5.23;;
13704;SDS011;6924;52.122;9.952;2023-04-25T02:16:11;7.30;;;5.33;;
13704;SDS011;6924;52.122;9.952;2023-04-25T02:18:38;8.37;;;5.77;;
13704;SDS011;6924;52.122;9.952;2023-04-25T02:21:04;9.30;;;5.30;;
13704;SDS011;6924;52.122;9.952;2023-04-25T02:23:30;8.57;;;5.93;;
13704;SDS011;6924;52.122;9.952;2023-04-25T02:25:57;6.10;;;5.33;;
13704;SDS011;6924;52.122;9.952;2023-04-25T02:28:23;10.87;;;5.83;;
13704;SDS011;6924;52.122;9.952;2023-04-25T02:30:52;8.67;;;6.00;;
13704;SDS011;6924;52.122;9.952;2023-04-25T02:33:18;9.57;;;5.30;;
13704;SDS011;6924;52.122;9.952;2023-04-25T02:35:46;11.93;;;6.73;;
13704;SDS011;6924;52.122;9.952;2023-04-25T02:38:12;7.17;;;5.17;;
13704;SDS011;6924;52.122;9.952;2023-04-25T02:40:38;6.23;;;5.33;;
13704;SDS011;6924;52.122;9.952;2023-04-25T02:43:05;7.17;;;6.50;;
13704;SDS011;6924;52.122;9.952;2023-04-25T02:45:32;7.37;;;5.67;;
13704;SDS011;6924;52.122;9.952;2023-04-25T02:47:59;11.20;;;5.87;;
13704;SDS011;6924;52.122;9.952;2023-04-25T02:50:26;7.10;;;6.37;;
13704;SDS011;6924;52.122;9.952;2023-04-25T02:52:52;12.90;;;7.33;;
13704;SDS011;6924;52.122;9.952;2023-04-25T02:55:19;7.87;;;5.17;;
13704;SDS011;6924;52.122;9.952;2023-04-25T02:57:45;7.13;;;5.73;;
13704;SDS011;6924;52.122;9.952;2023-04-25T03:00:12;8.67;;;5.67;;
13704;SDS011;6924;52.122;9.952;2023-04-25T03:02:40;7.27;;;5.67;;
13704;SDS011;6924;52.122;9.952;2023-04-25T03:05:08;9.67;;;6.10;;
13704;SDS011;6924;52.122;9.952;2023-04-25T03:07:34;7.90;;;6.20;;
13704;SDS011;6924;52.122;9.952;2023-04-25T03:10:01;7.07;;;6.37;;
13704;SDS011;6924;52.122;9.952;2023-04-25T03:12:27;7.97;;;5.60;;
13704;SDS011;6924;52.122;9.952;2023-04-25T03:14:53;8.07;;;6.70;;
13704;SDS011;6924;52.122;9.952;2023-04-25T03:17:20;7.53;;;5.67;;
13704;SDS011;6924;52.122;9.952;2023-04-25T03:19:47;9.00;;;6.17;;
13704;SDS011;6924;52.122;9.952;2023-04-25T03:22:15;7.87;;;5.60;;
13704;SDS011;6924;52.122;9.952;2023-04-25T03:24:41;8.73;;;6.00;;
13704;SDS011;6924;52.122;9.952;2023-04-25T03:27:08;8.73;;;4.27;;
13704;SDS011;6924;52.122;9.952;2023-04-25T03:29:34;6.67;;;4.50;;
13704;SDS011;6924;52.122;9.952;2023-04-25T03:32:01;8.53;;;4.70;;
13704;SDS011;6924;52.122;9.952;2023-04-25T03:34:27;10.53;;;4.63;;
13704;SDS011;6924;52.122;9.952;2023-04-25T03:36:54;16.27;;;4.10;;
13704;SDS011;6924;52.122;9.952;2023-04-25T03:39:21;15.53;;;5.00;;
13704;SDS011;6924;52.122;9.952;2023-04-25T03:41:48;8.77;;;4.33;;
13704;SDS011;6924;52.122;9.952;2023-04-25T03:44:14;10.90;;;4.70;;
13704;SDS011;6924;52.122;9.952;2023-04-25T03:46:41;11.57;;;3.73;;
13704;SDS011;6924;52.122;9.952;2023-04-25T03:49:07;13.23;;;3.70;;
13704;SDS011;6924;52.122;9.952;2023-04-25T03:51:33;8.97;;;3.67;;
13704;SDS011;6924;52.122;9.952;2023-04-25T03:54:00;12.27;;;3.60;;
13704;SDS011;6924;52.122;9.952;2023-04-25T03:56:28;7.23;;;3.63;;
13704;SDS011;6924;52.122;9.952;2023-04-25T03:58:54;10.50;;;3.93;;
13704;SDS011;6924;52.122;9.952;2023-04-25T04:01:20;10.03;;;4.10;;
13704;SDS011;6924;52.122;9.952;2023-04-25T04:03:47;10.37;;;3.93;;
13704;SDS011;6924;52.122;9.952;2023-04-25T04:06:13;6.83;;;3.63;;
13704;SDS011;6924;52.122;9.952;2023-04-25T04:08:40;12.33;;;4.10;;
13704;SDS011;6924;52.122;9.952;2023-04-25T04:11:06;11.30;;;5.10;;
13704;SDS011;6924;52.122;9.952;2023-04-25T04:13:34;13.60;;;3.67;;
13704;SDS011;6924;52.122;9.952;2023-04-25T04:16:01;14.30;;;3.30;;
13704;SDS011;6924;52.122;9.952;2023-04-25T04:18:29;10.03;;;3.07;;
13704;SDS011;6924;52.122;9.952;2023-04-25T04:20:55;10.47;;;3.27;;
13704;SDS011;6924;52.122;9.952;2023-04-25T04:23:23;12.57;;;4.87;;
13704;SDS011;6924;52.122;9.952;2023-04-25T04:25:52;16.17;;;3.90;;
13704;SDS011;6924;52.122;9.952;2023-04-25T04:28:19;7.97;;;2.87;;
13704;SDS011;6924;52.122;9.952;2023-04-25T04:30:46;12.17;;;3.60;;
13704;SDS011;6924;52.122;9.952;2023-04-25T04:33:16;15.77;;;3.67;;
13704;SDS011;6924;52.122;9.952;2023-04-25T04:35:44;14.07;;;4.43;;
13704;SDS011;6924;52.122;9.952;2023-04-25T04:38:11;12.13;;;3.17;;
13704;SDS011;6924;52.122;9.952;2023-04-25T04:40:39;16.47;;;4.33;;
13704;SDS011;6924;52.122;9.952;2023-04-25T04:43:06;12.73;;;3.80;;
13704;SDS011;6924;52.122;9.952;2023-04-25T04:45:33;11.53;;;4.37;;
13704;SDS011;6924;52.122;9.952;2023-04-25T04:48:01;8.97;;;2.80;;
13704;SDS011;6924;52.122;9.952;2023-04-25T04:50:28;11.53;;;3.60;;
13704;SDS011;6924;52.122;9.952;2023-04-25T04:52:54;12.13;;;3.87;;
13704;SDS011;6924;52.122;9.952;2023-04-25T04:55:20;6.97;;;3.17;;
13704;SDS011;6924;52.122;9.952;2023-04-25T04:57:47;18.93;;;4.10;;
13704;SDS011;6924;52.122;9.952;2023-04-25T05:00:14;17.00;;;5.03;;
13704;SDS011;6924;52.122;9.952;2023-04-25T05:02:41;16.10;;;4.07;;
13704;SDS011;6924;52.122;9.952;2023-04-25T05:05:08;9.00;;;3.00;;
13704;SDS011;6924;52.122;9.952;2023-04-25T05:07:35;12.17;;;3.50;;
13704;SDS011;6924;52.122;9.952;2023-04-25T05:10:02;14.37;;;3.87;;
13704;SDS011;6924;52.122;9.952;2023-04-25T05:12:29;13.33;;;4.07;;
13704;SDS011;6924;52.122;9.952;2023-04-25T05:14:55;12.97;;;3.80;;
13704;SDS011;6924;52.122;9.952;2023-04-25T05:17:22;17.70;;;4.40;;
13704;SDS011;6924;52.122;9.952;2023-04-25T05:19:48;12.70;;;3.80;;
13704;SDS011;6924;52.122;9.952;2023-04-25T05:22:16;10.80;;;4.00;;
13704;SDS011;6924;52.122;9.952;2023-04-25T05:24:42;16.87;;;3.50;;
13704;SDS011;6924;52.122;9.952;2023-04-25T05:27:09;16.87;;;5.17;;
13704;SDS011;6924;52.122;9.952;2023-04-25T05:29:35;10.27;;;4.17;;
13704;SDS011;6924;52.122;9.952;2023-04-25T05:32:02;14.43;;;4.23;;
13704;SDS011;6924;52.122;9.952;2023-04-25T05:34:28;9.97;;;2.97;;
13704;SDS011;6924;52.122;9.952;2023-04-25T05:36:55;8.97;;;3.10;;
13704;SDS011;6924;52.122;9.952;2023-04-25T05:39:22;16.27;;;3.40;;
13704;SDS011;6924;52.122;9.952;2023-04-25T05:41:49;12.87;;;3.67;;
13704;SDS011;6924;52.122;9.952;2023-04-25T05:44:15;15.63;;;4.10;;
13704;SDS011;6924;52.122;9.952;2023-04-25T05:46:42;14.70;;;4.30;;
13704;SDS011;6924;52.122;9.952;2023-04-25T05:49:08;13.03;;;3.43;;
13704;SDS011;6924;52.122;9.952;2023-04-25T05:51:35;14.73;;;3.67;;
13704;SDS011;6924;52.122;9.952;2023-04-25T05:54:01;17.97;;;5.90;;
13704;SDS011;6924;52.122;9.952;2023-04-25T05:56:29;11.37;;;3.20;;
13704;SDS011;6924;52.122;9.952;2023-04-25T05:58:55;16.13;;;3.47;;
13704;SDS011;6924;52.122;9.952;2023-04-25T06:01:22;12.73;;;3.53;;
13704;SDS011;6924;52.122;9.952;2023-04-25T06:03:48;11.43;;;3.43;;
13704;SDS011;6924;52.122;9.952;2023-04-25T06:06:16;14.83;;;3.37;;
13704;SDS011;6924;52.122;9.952;2023-04-25T06:08:42;13.73;;;3.20;;
13704;SDS011;6924;52.122;9.952;2023-04-25T06:11:09;12.60;;;3.10;;
13704;SDS011;6924;52.122;9.952;2023-04-25T06:13:37;11.30;;;4.03;;
13704;SDS011;6924;52.122;9.952;2023-04-25T06:16:04;11.37;;;2.87;;
13704;SDS011;6924;52.122;9.952;2023-04-25T06:18:30;10.87;;;3.43;;
13704;SDS011;6924;52.122;9.952;2023-04-25T06:20:57;15.40;;;2.73;;
13704;SDS011;6924;52.122;9.952;2023-04-25T06:23:23;10.03;;;2.93;;
13704;SDS011;6924;52.122;9.952;2023-04-25T06:25:50;14.17;;;3.70;;
13704;SDS011;6924;52.122;9.952;2023-04-25T06:28:16;14.93;;;3.00;;
13704;SDS011;6924;52.122;9.952;2023-04-25T06:30:44;11.90;;;2.50;;
13704;SDS011;6924;52.122;9.952;2023-04-25T06:33:10;9.30;;;2.70;;
13704;SDS011;6924;52.122;9.952;2023-04-25T06:35:37;16.53;;;2.83;;
13704;SDS011;6924;52.122;9.952;2023-04-25T06:38:03;17.93;;;2.97;;
13704;SDS011;6924;52.122;9.952;2023-04-25T06:40:29;10.53;;;2.47;;
13704;SDS011;6924;52.122;9.952;2023-04-25T06:42:56;8.30;;;2.33;;
13704;SDS011;6924;52.122;9.952;2023-04-25T06:45:22;17.73;;;2.60;;
13704;SDS011;6924;52.122;9.952;2023-04-25T06:47:50;15.73;;;3.20;;
13704;SDS011;6924;52.122;9.952;2023-04-25T06:50:16;12.90;;;3.13;;
13704;SDS011;6924;52.122;9.952;2023-04-25T06:52:43;11.30;;;2.90;;
13704;SDS011;6924;52.122;9.952;2023-04-25T06:55:09;15.17;;;2.80;;
13704;SDS011;6924;52.122;9.952;2023-04-25T06:57:36;6.17;;;2.80;;
13704;SDS011;6924;52.122;9.952;2023-04-25T07:00:02;11.23;;;2.70;;
13704;SDS011;6924;52.122;9.952;2023-04-25T07:02:33;9.30;;;3.03;;
13704;SDS011;6924;52.122;9.952;2023-04-25T07:05:01;8.00;;;2.70;;
13704;SDS011;6924;52.122;9.952;2023-04-25T07:07:29;7.80;;;2.63;;
13704;SDS011;6924;52.122;9.952;2023-04-25T07:09:55;14.77;;;3.53;;
13704;SDS011;6924;52.122;9.952;2023-04-25T07:12:21;9.43;;;2.30;;
13704;SDS011;6924;52.122;9.952;2023-04-25T07:14:48;9.13;;;2.90;;
13704;SDS011;6924;52.122;9.952;2023-04-25T07:17:14;13.17;;;2.77;;
13704;SDS011;6924;52.122;9.952;2023-04-25T07:19:41;7.00;;;2.67;;
13704;SDS011;6924;52.122;9.952;2023-04-25T07:22:09;12.50;;;2.97;;
13704;SDS011;6924;52.122;9.952;2023-04-25T07:24:36;7.53;;;2.60;;
13704;SDS011;6924;52.122;9.952;2023-04-25T07:27:02;9.87;;;2.70;;
13704;SDS011;6924;52.122;9.952;2023-04-25T07:29:29;9.47;;;2.33;;
13704;SDS011;6924;52.122;9.952;2023-04-25T07:31:56;11.43;;;2.87;;
13704;SDS011;6924;52.122;9.952;2023-04-25T07:34:22;11.83;;;2.50;;
13704;SDS011;6924;52.122;9.952;2023-04-25T07:36:49;9.63;;;1.90;;
13704;SDS011;6924;52.122;9.952;2023-04-25T07:39:17;4.83;;;2.10;;
13704;SDS011;6924;52.122;9.952;2023-04-25T07:41:43;8.53;;;1.77;;
13704;SDS011;6924;52.122;9.952;2023-04-25T07:44:09;9.37;;;2.43;;
13704;SDS011;6924;52.122;9.952;2023-04-25T07:46:36;18.17;;;3.20;;
13704;SDS011;6924;52.122;9.952;2023-04-25T07:49:02;8.80;;;2.00;;
13704;SDS011;6924;52.122;9.952;2023-04-25T07:51:29;6.37;;;1.93;;
13704;SDS011;6924;52.122;9.952;2023-04-25T07:53:56;8.23;;;1.93;;
13704;SDS011;6924;52.122;9.952;2023-04-25T07:56:24;6.73;;;2.30;;
13704;SDS011;6924;52.122;9.952;2023-04-25T07:58:50;14.97;;;2.23;;
13704;SDS011;6924;52.122;9.952;2023-04-25T08:01:17;5.67;;;1.73;;
13704;SDS011;6924;52.122;9.952;2023-04-25T08:03:45;6.37;;;1.63;;
13704;SDS011;6924;52.122;9.952;2023-04-25T08:06:11;6.27;;;1.70;;
13704;SDS011;6924;52.122;9.952;2023-04-25T08:08:37;5.67;;;1.83;;
13704;SDS011;6924;52.122;9.952;2023-04-25T08:11:04;7.60;;;1.80;;
13704;SDS011;6924;52.122;9.952;2023-04-25T08:13:32;6.50;;;1.80;;
13704;SDS011;6924;52.122;9.952;2023-04-25T08:15:59;7.57;;;2.07;;
13704;SDS011;6924;52.122;9.952;2023-04-25T08:18:25;9.17;;;2.83;;
13704;SDS011;6924;52.122;9.952;2023-04-25T08:20:51;12.57;;;1.70;;
13704;SDS011;6924;52.122;9.952;2023-04-25T08:23:18;9.47;;;1.83;;
13704;SDS011;6924;52.122;9.952;2023-04-25T08:25:44;7.70;;;2.17;;
13704;SDS011;6924;52.122;9.952;2023-04-25T08:28:11;10.47;;;1.70;;
13704;SDS011;6924;52.122;9.952;2023-04-25T08:30:39;4.77;;;1.67;;
13704;SDS011;6924;52.122;9.952;2023-04-25T08:33:05;5.03;;;1.50;;
13704;SDS011;6924;52.122;9.952;2023-04-25T08:35:32;4.50;;;1.37;;
13704;SDS011;6924;52.122;9.952;2023-04-25T08:37:59;2.93;;;1.30;;
13704;SDS011;6924;52.122;9.952;2023-04-25T08:40:26;5.73;;;1.53;;
13704;SDS011;6924;52.122;9.952;2023-04-25T08:42:55;6.43;;;1.80;;
13704;SDS011;6924;52.122;9.952;2023-04-25T08:45:23;7.67;;;2.17;;
13704;SDS011;6924;52.122;9.952;2023-04-25T08:47:53;5.80;;;1.60;;
13704;SDS011;6924;52.122;9.952;2023-04-25T08:50:22;4.37;;;1.60;;
13704;SDS011;6924;52.122;9.952;2023-04-25T08:52:51;4.10;;;1.40;;
13704;SDS011;6924;52.122;9.952;2023-04-25T08:55:20;2.87;;;1.20;;
13704;SDS011;6924;52.122;9.952;2023-04-25T08:57:47;5.80;;;1.40;;
13704;SDS011;6924;52.122;9.952;2023-04-25T09:00:15;3.47;;;1.80;;
13704;SDS011;6924;52.122;9.952;2023-04-25T09:02:43;6.90;;;1.43;;
13704;SDS011;6924;52.122;9.952;2023-04-25T09:05:11;5.00;;;1.47;;
13704;SDS011;6924;52.122;9.952;2023-04-25T09:07:39;3.67;;;1.97;;
13704;SDS011;6924;52.122;9.952;2023-04-25T09:10:05;6.13;;;1.90;;
13704;SDS011;6924;52.122;9.952;2023-04-25T09:12:32;5.67;;;1.20;;
13704;SDS011;6924;52.122;9.952;2023-04-25T09:15:05;8.27;;;1.73;;
13704;SDS011;6924;52.122;9.952;2023-04-25T09:17:33;4.93;;;1.47;;
13704;SDS011;6924;52.122;9.952;2023-04-25T09:20:06;3.63;;;1.03;;
13704;SDS011;6924;52.122;9.952;2023-04-25T09:22:36;4.93;;;1.37;;
13704;SDS011;6924;52.122;9.952;2023-04-25T09:25:03;2.77;;;1.33;;
13704;SDS011;6924;52.122;9.952;2023-04-25T09:27:31;5.33;;;1.23;;
13704;SDS011;6924;52.122;9.952;2023-04-25T09:29:58;4.43;;;1.53;;
13704;SDS011;6924;52.122;9.952;2023-04-25T09:32:25;2.87;;;1.17;;
13704;SDS011;6924;52.122;9.952;2023-04-25T09:34:52;2.93;;;1.70;;
13704;SDS011;6924;52.122;9.952;2023-04-25T09:37:20;4.20;;;1.60;;
13704;SDS011;6924;52.122;9.952;2023-04-25T09:39:50;5.77;;;1.07;;
13704;SDS011;6924;52.122;9.952;2023-04-25T09:42:17;6.50;;;1.23;;
13704;SDS011;6924;52.122;9.952;2023-04-25T09:44:44;4.30;;;0.97;;
13704;SDS011;6924;52.122;9.952;2023-04-25T09:47:12;1.97;;;1.10;;
13704;SDS011;6924;52.122;9.952;2023-04-25T09:49:41;3.47;;;1.70;;
13704;SDS011;6924;52.122;9.952;2023-04-25T09:52:08;4.17;;;1.10;;
13704;SDS011;6924;52.122;9.952;2023-04-25T09:54:35;7.07;;;1.30;;
13704;SDS011;6924;52.122;9.952;2023-04-25T09:57:10;4.87;;;1.33;;
13704;SDS011;6924;52.122;9.952;2023-04-25T09:59:38;4.67;;;1.67;;
13704;SDS011;6924;52.122;9.952;2023-04-25T10:02:06;5.03;;;1.73;;
13704;SDS011;6924;52.122;9.952;2023-04-25T10:04:34;4.50;;;1.10;;
13704;SDS011;6924;52.122;9.952;2023-04-25T10:07:01;4.50;;;1.30;;
13704;SDS011;6924;52.122;9.952;2023-04-25T10:09:29;9.60;;;2.53;;
13704;SDS011;6924;52.122;9.952;2023-04-25T10:11:59;4.53;;;1.23;;
13704;SDS011;6924;52.122;9.952;2023-04-25T10:14:28;3.70;;;1.30;;
13704;SDS011;6924;52.122;9.952;2023-04-25T10:16:55;7.60;;;1.40;;
13704;SDS011;6924;52.122;9.952;2023-04-25T10:19:23;4.23;;;1.33;;
13704;SDS011;6924;52.122;9.952;2023-04-25T10:21:50;4.40;;;1.20;;
13704;SDS011;6924;52.122;9.952;2023-04-25T10:24:18;5.00;;;1.37;;
13704;SDS011;6924;52.122;9.952;2023-04-25T10:26:45;4.07;;;1.43;;
13704;SDS011;6924;52.122;9.952;2023-04-25T10:29:12;7.13;;;1.17;;
13704;SDS011;6924;52.122;9.952;2023-04-25T10:31:49;3.90;;;1.67;;
13704;SDS011;6924;52.122;9.952;2023-04-25T10:34:15;5.37;;;1.33;;
13704;SDS011;6924;52.122;9.952;2023-04-25T10:36:42;4.47;;;1.20;;
13704;SDS011;6924;52.122;9.952;2023-04-25T10:39:09;5.80;;;1.00;;
13704;SDS011;6924;52.122;9.952;2023-04-25T10:41:47;3.87;;;1.30;;
13704;SDS011;6924;52.122;9.952;2023-04-25T10:44:18;6.40;;;1.23;;
13704;SDS011;6924;52.122;9.952;2023-04-25T10:46:44;4.70;;;2.17;;
13704;SDS011;6924;52.122;9.952;2023-04-25T10:49:27;4.47;;;0.90;;
13704;SDS011;6924;52.122;9.952;2023-04-25T10:52:10;4.40;;;1.67;;
13704;SDS011;6924;52.122;9.952;2023-04-25T10:54:40;7.80;;;1.47;;
13704;SDS011;6924;52.122;9.952;2023-04-25T10:57:06;3.50;;;0.97;;
13704;SDS011;6924;52.122;9.952;2023-04-25T10:59:33;2.87;;;1.47;;
13704;SDS011;6924;52.122;9.952;2023-04-25T11:01:59;3.93;;;1.10;;
13704;SDS011;6924;52.122;9.952;2023-04-25T11:04:38;3.47;;;1.23;;
13704;SDS011;6924;52.122;9.952;2023-04-25T11:07:08;4.27;;;1.37;;
13704;SDS011;6924;52.122;9.952;2023-04-25T11:09:39;3.37;;;1.40;;
13704;SDS011;6924;52.122;9.952;2023-04-25T11:12:07;6.30;;;1.10;;
13704;SDS011;6924;52.122;9.952;2023-04-25T11:14:36;4.07;;;1.77;;
13704;SDS011;6924;52.122;9.952;2023-04-25T11:17:02;3.60;;;1.63;;
13704;SDS011;6924;52.122;9.952;2023-04-25T11:19:30;3.23;;;1.13;;
13704;SDS011;6924;52.122;9.952;2023-04-25T11:21:58;2.20;;;0.90;;
13704;SDS011;6924;52.122;9.952;2023-04-25T11:24:26;3.83;;;1.30;;
13704;SDS011;6924;52.122;9.952;2023-04-25T11:26:53;2.60;;;0.90;;
13704;SDS011;6924;52.122;9.952;2023-04-25T11:29:21;3.27;;;1.43;;
13704;SDS011;6924;52.122;9.952;2023-04-25T11:31:48;4.53;;;1.90;;
13704;SDS011;6924;52.122;9.952;2023-04-25T11:34:16;1.97;;;0.93;;
13704;SDS011;6924;52.122;9.952;2023-04-25T11:36:43;4.37;;;1.00;;
13704;SDS011;6924;52.122;9.952;2023-04-25T11:39:12;2.50;;;1.63;;
13704;SDS011;6924;52.122;9.952;2023-04-25T11:41:40;8.93;;;1.17;;
13704;SDS011;6924;52.122;9.952;2023-04-25T11:44:07;2.87;;;0.90;;
13704;SDS011;6924;52.122;9.952;2023-04-25T11:46:34;1.87;;;0.87;;
13704;SDS011;6924;52.122;9.952;2023-04-25T11:49:00;1.87;;;1.17;;
13704;SDS011;6924;52.122;9.952;2023-04-25T11:51:29;3.07;;;1.10;;
13704;SDS011;6924;52.122;9.952;2023-04-25T11:53:55;5.57;;;1.27;;
13704;SDS011;6924;52.122;9.952;2023-04-25T11:56:23;3.37;;;1.17;;
13704;SDS011;6924;52.122;9.952;2023-04-25T11:58:56;3.10;;;1.57;;
13704;SDS011;6924;52.122;9.952;2023-04-25T12:01:27;3.73;;;1.37;;
13704;SDS011;6924;52.122;9.952;2023-04-25T12:03:55;3.17;;;1.20;;
13704;SDS011;6924;52.122;9.952;2023-04-25T12:06:24;3.27;;;1.23;;
13704;SDS011;6924;52.122;9.952;2023-04-25T12:08:59;3.53;;;1.33;;
13704;SDS011;6924;52.122;9.952;2023-04-25T12:11:31;2.40;;;1.17;;
13704;SDS011;6924;52.122;9.952;2023-04-25T12:14:01;1.50;;;0.83;;
13704;SDS011;6924;52.122;9.952;2023-04-25T12:16:28;3.37;;;1.20;;
13704;SDS011;6924;52.122;9.952;2023-04-25T12:18:55;6.33;;;1.40;;
13704;SDS011;6924;52.122;9.952;2023-04-25T12:21:22;3.57;;;1.20;;
13704;SDS011;6924;52.122;9.952;2023-04-25T12:23:48;2.00;;;1.07;;
13704;SDS011;6924;52.122;9.952;2023-04-25T12:26:15;5.90;;;1.33;;
13704;SDS011;6924;52.122;9.952;2023-04-25T12:28:46;2.73;;;1.00;;
13704;SDS011;6924;52.122;9.952;2023-04-25T12:31:13;2.93;;;1.00;;
13704;SDS011;6924;52.122;9.952;2023-04-25T12:33:41;2.30;;;0.70;;
13704;SDS011;6924;52.122;9.952;2023-04-25T12:36:08;4.00;;;0.83;;
13704;SDS011;6924;52.122;9.952;2023-04-25T12:38:37;2.03;;;1.33;;
13704;SDS011;6924;52.122;9.952;2023-04-25T12:41:04;3.20;;;1.20;;
13704;SDS011;6924;52.122;9.952;2023-04-25T12:43:31;2.17;;;1.10;;
13704;SDS011;6924;52.122;9.952;2023-04-25T12:45:58;2.93;;;1.10;;
13704;SDS011;6924;52.122;9.952;2023-04-25T12:48:25;2.27;;;1.10;;
13704;SDS011;6924;52.122;9.952;2023-04-25T12:50:51;5.50;;;0.83;;
13704;SDS011;6924;52.122;9.952;2023-04-25T12:53:18;1.27;;;1.00;;
13704;SDS011;6924;52.122;9.952;2023-04-25T12:55:46;6.20;;;1.63;;
13704;SDS011;6924;52.122;9.952;2023-04-25T12:58:12;3.73;;;1.10;;
13704;SDS011;6924;52.122;9.952;2023-04-25T13:00:39;2.23;;;0.70;;
13704;SDS011;6924;52.122;9.952;2023-04-25T13:03:07;1.90;;;0.80;;
13704;SDS011;6924;52.122;9.952;2023-04-25T13:05:34;2.20;;;0.70;;
13704;SDS011;6924;52.122;9.952;2023-04-25T13:08:01;2.83;;;1.07;;
13704;SDS011;6924;52.122;9.952;2023-04-25T13:10:27;2.77;;;1.23;;
13704;SDS011;6924;52.122;9.952;2023-04-25T13:12:53;1.07;;;0.50;;
13704;SDS011;6924;52.122;9.952;2023-04-25T13:15:20;0.63;;;0.40;;
13704;SDS011;6924;52.122;9.952;2023-04-25T13:17:46;2.50;;;0.67;;
13704;SDS011;6924;52.122;9.952;2023-04-25T13:20:14;3.30;;;0.73;;
13704;SDS011;6924;52.122;9.952;2023-04-25T13:22:41;1.87;;;0.60;;
13704;SDS011;6924;52.122;9.952;2023-04-25T13:25:10;1.17;;;0.50;;
13704;SDS011;6924;52.122;9.952;2023-04-25T13:27:37;1.30;;;0.83;;
13704;SDS011;6924;52.122;9.952;2023-04-25T13:30:05;1.00;;;0.60;;
13704;SDS011;6924;52.122;9.952;2023-04-25T13:32:33;2.03;;;0.70;;
13704;SDS011;6924;52.122;9.952;2023-04-25T13:35:01;1.23;;;0.70;;
13704;SDS011;6924;52.122;9.952;2023-04-25T13:37:29;1.40;;;0.70;;
13704;SDS011;6924;52.122;9.952;2023-04-25T13:39:57;8.83;;;0.90;;
13704;SDS011;6924;52.122;9.952;2023-04-25T13:42:24;2.93;;;0.70;;
13704;SDS011;6924;52.122;9.952;2023-04-25T13:44:51;0.87;;;0.60;;
13704;SDS011;6924;52.122;9.952;2023-04-25T13:47:17;2.07;;;0.80;;
13704;SDS011;6924;52.122;9.952;2023-04-25T13:49:44;1.37;;;0.57;;
13704;SDS011;6924;52.122;9.952;2023-04-25T13:52:10;4.30;;;0.63;;
13704;SDS011;6924;52.122;9.952;2023-04-25T13:54:38;1.70;;;0.50;;
13704;SDS011;6924;52.122;9.952;2023-04-25T13:57:05;1.17;;;0.70;;
13704;SDS011;6924;52.122;9.952;2023-04-25T13:59:32;1.13;;;0.70;;
13704;SDS011;6924;52.122;9.952;2023-04-25T14:01:58;4.10;;;0.87;;
13704;SDS011;6924;52.122;9.952;2023-04-25T14:04:25;2.90;;;0.80;;
13704;SDS011;6924;52.122;9.952;2023-04-25T14:06:52;2.07;;;0.53;;
13704;SDS011;6924;52.122;9.952;2023-04-25T14:09:19;1.43;;;0.77;;
13704;SDS011;6924;52.122;9.952;2023-04-25T14:11:51;2.27;;;1.27;;
13704;SDS011;6924;52.122;9.952;2023-04-25T14:14:18;3.60;;;1.23;;
13704;SDS011;6924;52.122;9.952;2023-04-25T14:16:44;1.73;;;0.90;;
13704;SDS011;6924;52.122;9.952;2023-04-25T14:19:13;2.13;;;0.90;;
13704;SDS011;6924;52.122;9.952;2023-04-25T14:21:39;1.03;;;0.60;;
13704;SDS011;6924;52.122;9.952;2023-04-25T14:24:06;1.43;;;0.73;;
13704;SDS011;6924;52.122;9.952;2023-04-25T14:26:33;2.53;;;0.83;;
13704;SDS011;6924;52.122;9.952;2023-04-25T14:29:01;1.00;;;0.90;;
13704;SDS011;6924;52.122;9.952;2023-04-25T14:31:27;2.13;;;0.63;;
13704;SDS011;6924;52.122;9.952;2023-04-25T14:33:54;0.77;;;0.70;;
13704;SDS011;6924;52.122;9.952;2023-04-25T14:36:20;1.77;;;0.63;;
13704;SDS011;6924;52.122;9.952;2023-04-25T14:38:47;1.77;;;0.57;;
13704;SDS011;6924;52.122;9.952;2023-04-25T14:41:13;1.37;;;0.60;;
13704;SDS011;6924;52.122;9.952;2023-04-25T14:43:40;2.50;;;1.20;;
13704;SDS011;6924;52.122;9.952;2023-04-25T14:46:08;1.57;;;0.87;;
13704;SDS011;6924;52.122;9.952;2023-04-25T14:48:35;3.57;;;0.80;;
13704;SDS011;6924;52.122;9.952;2023-04-25T14:51:02;3.40;;;0.90;;
13704;SDS011;6924;52.122;9.952;2023-04-25T14:53:29;1.53;;;1.07;;
13704;SDS011;6924;52.122;9.952;2023-04-25T14:55:55;3.50;;;0.77;;
13704;SDS011;6924;52.122;9.952;2023-04-25T14:58:22;3.83;;;1.10;;